Time;durP1;ratioP1;P1;durP2;ratioP2;P2;SDS_P1;SDS_P2;PMS_P1;PMS_P2;Temp;Humidity;BMP_temperature;BMP_pressure;BME280_temperature;BME280_humidity;BME280_pressure;Samples;Min_cycle;Max_cycle;Signal;HPM_P1;HPM_P2
2022/05/09 00:00:19;;;;;;;13.50;2.70;;;;;;;10.13;63.89;102565.69;5053898;28;20068;-82
2022/05/09 00:02:44;;;;;;;8.93;3.10;;;;;;;10.07;63.79;102564.50;5053777;28;20060;-82
2022/05/09 00:05:15;;;;;;;10.65;3.17;;;;;;;10.01;63.74;102552.44;5053842;28;20495;-82
2022/05/09 00:07:41;;;;;;;8.23;2.90;;;;;;;10.01;63.40;102560.59;5055333;28;20021;-82
2022/05/09 00:10:08;;;;;;;11.67;3.17;;;;;;;9.98;64.24;102551.94;5054993;28;20033;-82
2022/05/09 00:12:34;;;;;;;12.55;3.05;;;;;;;9.96;65.73;102560.22;5037563;28;20040;-82
2022/05/09 00:14:59;;;;;;;13.80;3.20;;;;;;;9.91;64.60;102557.19;5055403;28;20041;-82
2022/05/09 00:17:25;;;;;;;8.53;2.80;;;;;;;9.88;65.00;102554.00;5053436;28;20037;-82
2022/05/09 00:19:50;;;;;;;10.87;3.10;;;;;;;9.84;65.04;102553.47;5053880;28;20041;-82
2022/05/09 00:22:15;;;;;;;9.30;2.73;;;;;;;9.81;64.35;102542.97;5036852;28;20082;-82
2022/05/09 00:24:41;;;;;;;10.07;2.45;;;;;;;9.79;64.11;102547.72;5037211;28;20044;-82
2022/05/09 00:27:06;;;;;;;12.27;2.93;;;;;;;9.74;64.18;102555.50;5020325;28;20037;-82
2022/05/09 00:29:32;;;;;;;7.63;2.63;;;;;;;9.70;64.07;102541.44;5036810;28;20155;-82
2022/05/09 00:31:57;;;;;;;11.00;2.67;;;;;;;9.70;64.06;102543.28;5020050;28;20045;-82
2022/05/09 00:34:25;;;;;;;16.33;2.90;;;;;;;9.69;64.49;102550.56;5036821;28;20103;-82
2022/05/09 00:36:52;;;;;;;11.77;2.90;;;;;;;9.66;64.72;102546.31;5053283;28;20029;-82
2022/05/09 00:39:18;;;;;;;8.03;2.50;;;;;;;9.63;65.12;102543.97;5053331;28;20500;-82
2022/05/09 00:41:45;;;;;;;9.48;2.97;;;;;;;9.60;64.84;102538.88;5053606;28;20120;-83
2022/05/09 00:44:14;;;;;;;11.25;2.70;;;;;;;9.60;65.27;102547.00;5036222;28;20036;-82
2022/05/09 00:46:44;;;;;;;11.27;3.00;;;;;;;9.55;65.01;102537.69;5053279;28;20063;-82
2022/05/09 00:49:34;;;;;;;10.45;3.17;;;;;;;9.54;64.42;102546.84;5052735;28;20040;-82
2022/05/09 00:52:02;;;;;;;11.73;2.87;;;;;;;9.51;64.99;102550.72;5054334;28;20477;-82
2022/05/09 00:54:33;;;;;;;10.07;2.88;;;;;;;9.47;65.37;102542.06;5052864;28;20025;-82
2022/05/09 00:57:11;;;;;;;14.30;2.90;;;;;;;9.44;65.94;102539.69;5054200;28;20033;-83
2022/05/09 00:59:38;;;;;;;9.63;2.85;;;;;;;9.43;66.53;102542.56;5054134;28;20116;-82
2022/05/09 01:02:04;;;;;;;10.98;3.03;;;;;;;9.40;66.14;102548.31;5036329;28;20025;-82
2022/05/09 01:04:38;;;;;;;11.73;2.77;;;;;;;9.36;66.49;102546.94;5036193;28;20043;-82
2022/05/09 01:07:04;;;;;;;10.68;2.72;;;;;;;9.35;66.42;102545.28;5052762;28;20071;-82
2022/05/09 01:09:29;;;;;;;11.10;2.83;;;;;;;9.30;67.20;102537.63;5052913;28;20063;-82
2022/05/09 01:11:55;;;;;;;11.90;3.03;;;;;;;9.25;66.88;102538.13;5052699;28;20034;-82
2022/05/09 01:14:25;;;;;;;11.57;3.00;;;;;;;9.23;66.81;102533.91;5019565;28;20025;-82
2022/05/09 01:16:50;;;;;;;9.13;2.97;;;;;;;9.17;68.06;102524.56;5052197;28;20136;-82
2022/05/09 01:19:26;;;;;;;9.73;3.07;;;;;;;9.13;67.96;102528.63;5052400;28;20060;-83
2022/05/09 01:21:52;;;;;;;9.00;2.78;;;;;;;9.05;68.71;102524.03;5052490;28;20040;-82
2022/05/09 01:24:20;;;;;;;10.90;3.27;;;;;;;9.02;68.37;102520.78;5052321;28;20029;-82
2022/05/09 01:26:46;;;;;;;7.80;2.78;;;;;;;8.98;69.62;102519.44;5053432;28;20484;-82
2022/05/09 01:29:50;;;;;;;11.03;3.20;;;;;;;8.94;68.03;102527.88;5052737;28;20029;-82
2022/05/09 01:32:19;;;;;;;7.82;2.55;;;;;;;8.88;69.49;102525.81;5030467;28;20090;-82
2022/05/09 01:34:50;;;;;;;9.07;3.03;;;;;;;8.84;70.08;102527.16;5053115;28;20114;-82
2022/05/09 01:37:19;;;;;;;12.68;2.92;;;;;;;8.79;71.04;102524.09;5051913;28;20034;-82
2022/05/09 01:39:44;;;;;;;11.70;3.35;;;;;;;8.76;70.55;102521.72;5052214;28;20037;-82
2022/05/09 01:42:10;;;;;;;11.40;3.40;;;;;;;8.71;70.60;102522.22;5052057;28;20033;-82
2022/05/09 01:44:36;;;;;;;8.88;3.10;;;;;;;8.68;70.47;102517.13;5052506;28;20497;-82
2022/05/09 01:49:45;;;;;;;14.10;3.90;;;;;;;8.63;69.93;102513.19;5038799;28;20104;-82
2022/05/09 01:52:16;;;;;;;12.33;3.00;;;;;;;8.59;69.60;102516.22;5035590;28;20465;-83
2022/05/09 01:54:43;;;;;;;9.93;3.20;;;;;;;8.55;70.74;102528.38;5052527;28;20029;-82
2022/05/09 01:57:13;;;;;;;12.68;3.28;;;;;;;8.50;70.83;102527.16;5052142;28;20029;-82
2022/05/09 01:59:42;;;;;;;12.77;3.00;;;;;;;8.48;70.90;102524.63;5052280;28;20037;-82
2022/05/09 02:02:13;;;;;;;10.75;2.67;;;;;;;8.43;71.08;102519.66;5052037;28;20029;-83
2022/05/09 02:04:40;;;;;;;15.65;3.92;;;;;;;8.39;71.73;102523.69;5052155;28;20032;-83
2022/05/09 02:07:09;;;;;;;19.67;3.80;;;;;;;8.34;72.02;102523.34;5052091;28;20071;-82
2022/05/09 02:09:40;;;;;;;12.30;3.35;;;;;;;8.31;71.69;102523.66;5053632;28;20039;-82
2022/05/09 02:12:06;;;;;;;10.57;3.37;;;;;;;8.29;72.12;102524.81;5053362;28;20036;-83
2022/05/09 02:14:32;;;;;;;15.15;3.70;;;;;;;8.21;72.29;102521.03;5051882;28;20037;-82
2022/05/09 02:16:57;;;;;;;12.67;3.63;;;;;;;8.20;72.66;102521.19;5051688;28;20053;-82
2022/05/09 02:19:22;;;;;;;13.00;3.55;;;;;;;8.15;72.98;102513.56;5052019;28;20040;-82
2022/05/09 02:21:48;;;;;;;8.63;3.30;;;;;;;8.14;72.97;102511.88;5018632;28;20029;-82
2022/05/09 02:24:13;;;;;;;14.70;3.90;;;;;;;8.13;73.49;102507.47;5051574;28;20405;-82
2022/05/09 02:26:39;;;;;;;7.57;3.10;;;;;;;8.08;73.17;102516.03;5052969;28;20190;-82
2022/05/09 02:29:04;;;;;;;10.57;3.07;;;;;;;8.06;72.49;102509.97;5018913;28;20056;-83
2022/05/09 02:31:31;;;;;;;10.17;3.23;;;;;;;8.04;73.20;102514.66;5051981;28;20283;-82
2022/05/09 02:33:57;;;;;;;11.00;3.30;;;;;;;8.01;73.73;102512.28;5052809;28;20139;-82
2022/05/09 02:36:22;;;;;;;10.13;3.20;;;;;;;8.00;73.75;102515.13;5051810;28;20063;-82
2022/05/09 02:38:47;;;;;;;8.83;3.13;;;;;;;7.95;73.10;102510.19;5035242;28;20025;-82
2022/05/09 02:41:13;;;;;;;9.65;3.13;;;;;;;7.93;73.58;102514.06;5035321;28;20458;-82
2022/05/09 02:43:38;;;;;;;15.90;3.87;;;;;;;7.89;73.62;102508.13;5034969;28;20037;-82
2022/05/09 02:46:04;;;;;;;18.83;3.57;;;;;;;7.87;73.91;102505.59;5052792;28;20043;-82
2022/05/09 02:48:35;;;;;;;7.17;3.07;;;;;;;7.88;73.63;102504.59;5054250;28;20446;-82
2022/05/09 02:51:01;;;;;;;13.20;3.60;;;;;;;7.87;73.73;102500.19;5056560;28;20059;-82
2022/05/09 02:53:26;;;;;;;9.40;3.40;;;;;;;7.83;73.52;102504.19;5055366;28;20028;-82
2022/05/09 02:55:55;;;;;;;12.33;3.63;;;;;;;7.80;73.74;102515.31;5038590;28;20036;-82
2022/05/09 02:58:20;;;;;;;8.85;3.35;;;;;;;7.78;73.41;102503.84;5038511;28;20029;-83
2022/05/09 03:00:46;;;;;;;9.80;3.53;;;;;;;7.76;73.28;102505.81;5055256;28;20116;-83
2022/05/09 03:05:56;;;;;;;15.27;3.50;;;;;;;7.69;73.83;102502.06;5055368;28;20040;-82
2022/05/09 03:08:23;;;;;;;11.73;3.72;;;;;;;7.64;73.94;102497.13;5055389;28;20119;-83
2022/05/09 03:10:48;;;;;;;13.15;3.70;;;;;;;7.62;74.14;102503.66;5038115;28;20064;-82
2022/05/09 03:13:14;;;;;;;7.80;3.37;;;;;;;7.59;74.51;102504.84;5038131;28;20076;-83
2022/05/09 03:15:42;;;;;;;7.53;3.13;;;;;;;7.51;74.77;102497.53;5038859;28;20396;-82
2022/05/09 03:18:08;;;;;;;10.10;3.40;;;;;;;7.48;75.31;102505.91;5055356;28;20120;-82
2022/05/09 03:20:34;;;;;;;9.85;3.33;;;;;;;7.42;75.87;102493.03;5055978;28;20376;-82
2022/05/09 03:23:02;;;;;;;9.43;3.20;;;;;;;7.40;76.31;102500.44;5054537;28;20064;-82
2022/05/09 03:25:28;;;;;;;9.15;3.55;;;;;;;7.37;76.86;102498.91;5054845;28;20041;-82
2022/05/09 03:27:53;;;;;;;11.50;3.53;;;;;;;7.36;76.84;102499.06;5055102;28;20037;-82
2022/05/09 03:30:19;;;;;;;7.93;3.25;;;;;;;7.31;76.53;102493.28;5054170;28;20114;-82
2022/05/09 03:32:46;;;;;;;9.20;3.23;;;;;;;7.28;77.01;102493.56;5054996;28;20040;-82
2022/05/09 03:35:12;;;;;;;11.02;3.60;;;;;;;7.23;76.87;102488.63;5038490;28;20040;-82
2022/05/09 03:37:37;;;;;;;9.23;3.40;;;;;;;7.19;77.12;102490.78;5054889;28;20036;-82
2022/05/09 03:40:04;;;;;;;16.42;3.95;;;;;;;7.12;77.62;102492.41;5054593;28;20087;-82
2022/05/09 03:42:30;;;;;;;15.55;4.00;;;;;;;7.10;77.59;102486.31;5054342;28;20036;-82
2022/05/09 03:44:55;;;;;;;13.97;3.70;;;;;;;7.09;77.36;102486.47;5037437;28;20110;-82
2022/05/09 03:47:21;;;;;;;7.77;3.63;;;;;;;7.03;77.32;102486.06;5037693;28;20104;-82
2022/05/09 03:49:46;;;;;;;12.33;3.40;;;;;;;7.02;78.52;102488.91;5037600;28;20029;-82
2022/05/09 03:52:11;;;;;;;13.63;3.77;;;;;;;6.99;78.52;102478.44;5053932;28;20071;-82
2022/05/09 03:54:37;;;;;;;11.60;3.28;;;;;;;6.97;78.85;102478.56;5053901;28;20112;-82
2022/05/09 03:57:02;;;;;;;8.67;4.10;;;;;;;7.00;77.70;102489.06;5037585;28;20465;-82
2022/05/09 03:59:28;;;;;;;15.13;3.90;;;;;;;7.02;78.05;102489.75;5054224;28;20047;-82
2022/05/09 04:01:56;;;;;;;12.10;4.35;;;;;;;7.05;77.72;102487.78;5053693;28;20082;-82
2022/05/09 04:04:21;;;;;;;12.90;3.75;;;;;;;7.05;77.96;102491.31;5053883;28;20025;-82
2022/05/09 04:06:49;;;;;;;14.90;4.40;;;;;;;7.05;78.38;102490.47;5037273;28;20078;-82
2022/05/09 04:09:15;;;;;;;13.00;3.88;;;;;;;7.07;79.14;102485.75;5037665;28;20029;-82
2022/05/09 04:11:42;;;;;;;16.00;3.97;;;;;;;7.08;78.93;102492.88;5036833;28;20029;-82
2022/05/09 04:14:07;;;;;;;15.38;4.32;;;;;;;7.09;78.47;102489.16;5037834;28;20029;-82
2022/05/09 04:16:51;;;;;;;12.07;4.17;;;;;;;7.15;78.42;102488.56;5054406;28;20060;-82
2022/05/09 04:19:18;;;;;;;11.75;4.10;;;;;;;7.17;77.79;102490.06;5053617;28;20037;-82
2022/05/09 04:21:44;;;;;;;11.82;4.03;;;;;;;7.18;77.58;102483.69;5053799;28;20394;-82
2022/05/09 04:24:09;;;;;;;13.47;3.73;;;;;;;7.22;77.52;102484.25;5055263;28;20029;-82
2022/05/09 04:26:38;;;;;;;15.45;4.53;;;;;;;7.25;77.86;102483.06;5053403;28;20112;-82
2022/05/09 04:29:04;;;;;;;14.10;4.20;;;;;;;7.24;77.61;102484.94;5053400;28;20461;-82
2022/05/09 04:31:30;;;;;;;14.02;4.30;;;;;;;7.27;77.67;102478.38;5037102;28;20055;-82
2022/05/09 04:33:58;;;;;;;12.95;3.88;;;;;;;7.27;78.18;102478.38;5053343;28;20040;-81
2022/05/09 04:36:25;;;;;;;14.05;4.43;;;;;;;7.31;77.86;102477.91;5053217;28;20039;-82
2022/05/09 04:38:52;;;;;;;16.10;3.67;;;;;;;7.33;77.24;102481.31;5052868;28;20033;-82
2022/05/09 04:41:19;;;;;;;22.10;4.87;;;;;;;7.38;77.21;102470.91;5053516;28;20033;-82
2022/05/09 04:43:46;;;;;;;14.25;4.35;;;;;;;7.41;77.67;102475.16;5036816;28;20033;-82
2022/05/09 04:46:13;;;;;;;16.02;4.32;;;;;;;7.46;77.01;102478.22;5052719;28;20457;-82
2022/05/09 04:48:41;;;;;;;13.88;4.03;;;;;;;7.55;77.20;102479.97;5053028;28;20458;-82
2022/05/09 04:51:08;;;;;;;13.02;4.10;;;;;;;7.60;77.65;102474.09;5053089;28;20122;-82
2022/05/09 04:53:33;;;;;;;20.80;4.63;;;;;;;7.64;77.35;102475.50;5036820;28;20123;-82
2022/05/09 04:55:59;;;;;;;13.52;3.83;;;;;;;7.71;77.30;102478.44;5052887;28;20116;-82
2022/05/09 04:58:25;;;;;;;14.13;4.30;;;;;;;7.78;77.25;102471.41;5052811;28;20037;-82
2022/05/09 05:00:53;;;;;;;14.15;4.72;;;;;;;7.79;76.27;102475.78;5052842;28;20033;-82
2022/05/09 05:03:19;;;;;;;15.07;4.95;;;;;;;7.82;77.95;102474.63;5053353;28;20044;-82
2022/05/09 05:05:45;;;;;;;20.53;4.53;;;;;;;7.87;77.19;102466.91;5054094;28;20383;-82
2022/05/09 05:08:15;;;;;;;16.38;4.68;;;;;;;7.95;76.95;102463.41;5036199;28;20090;-82
2022/05/09 05:10:41;;;;;;;9.63;4.53;;;;;;;8.00;76.12;102461.94;5051909;28;20029;-82
2022/05/09 05:13:09;;;;;;;12.50;4.40;;;;;;;8.03;76.23;102458.91;5053346;28;20502;-82
2022/05/09 05:15:34;;;;;;;14.38;4.18;;;;;;;8.05;75.97;102456.06;5053285;28;20052;-82
2022/05/09 05:18:00;;;;;;;17.07;4.37;;;;;;;8.14;75.98;102465.06;5053076;28;20033;-82
2022/05/09 05:20:26;;;;;;;23.88;4.82;;;;;;;8.15;75.57;102466.75;5053231;28;20033;-82
2022/05/09 05:22:52;;;;;;;14.13;4.53;;;;;;;8.22;75.43;102471.38;5036214;28;20039;-82
2022/05/09 05:25:26;;;;;;;17.23;5.25;;;;;;;8.29;75.10;102468.03;5035917;28;20422;-82
2022/05/09 05:27:51;;;;;;;18.42;5.38;;;;;;;8.35;75.35;102470.06;5054217;28;20465;-82
2022/05/09 05:30:18;;;;;;;16.50;5.00;;;;;;;8.41;74.79;102466.72;5052253;28;20048;-83
2022/05/09 05:32:44;;;;;;;15.75;5.18;;;;;;;8.48;74.57;102472.38;5052296;28;20021;-82
2022/05/09 05:35:13;;;;;;;18.63;4.75;;;;;;;8.52;74.05;102471.03;5052352;28;20095;-82
2022/05/09 05:37:40;;;;;;;12.90;4.45;;;;;;;8.59;73.81;102472.94;5052644;28;20082;-82
2022/05/09 05:40:06;;;;;;;14.80;4.80;;;;;;;8.65;73.48;102476.00;5052907;28;20356;-82
2022/05/09 05:42:32;;;;;;;12.10;4.20;;;;;;;8.71;73.61;102469.91;5052080;28;20436;-81
2022/05/09 05:44:58;;;;;;;13.07;4.85;;;;;;;8.78;73.10;102473.66;5051852;28;20083;-82
2022/05/09 05:47:23;;;;;;;15.03;4.63;;;;;;;8.86;73.09;102473.72;5052043;28;20033;-81
2022/05/09 05:49:50;;;;;;;12.77;4.43;;;;;;;8.92;72.52;102475.75;5052011;28;20059;-82
2022/05/09 05:52:16;;;;;;;12.48;4.28;;;;;;;8.97;71.85;102472.56;5052004;28;20113;-81
2022/05/09 05:54:44;;;;;;;15.35;5.22;;;;;;;9.05;71.78;102463.59;5051860;28;20074;-81
2022/05/09 05:57:17;;;;;;;14.50;4.53;;;;;;;9.16;71.52;102476.00;5052052;28;20090;-81
2022/05/09 05:59:54;;;;;;;10.80;4.35;;;;;;;9.21;71.07;102469.06;5051924;28;20079;-83
2022/05/09 06:02:20;;;;;;;17.52;4.80;;;;;;;9.28;71.59;102470.06;5053482;28;20032;-82
2022/05/09 06:04:46;;;;;;;13.95;4.03;;;;;;;9.37;70.89;102470.09;5035404;28;20033;-83
2022/05/09 06:07:12;;;;;;;9.63;4.77;;;;;;;9.43;70.52;102473.00;5053044;28;20040;-82
2022/05/09 06:09:40;;;;;;;19.92;5.00;;;;;;;9.53;70.48;102480.09;5053066;28;20025;-82
2022/05/09 06:12:09;;;;;;;22.92;5.30;;;;;;;9.60;70.15;102468.41;5051900;28;20037;-82
2022/05/09 06:14:38;;;;;;;23.40;4.93;;;;;;;9.68;70.38;102466.72;5051219;28;20029;-83
2022/05/09 06:17:08;;;;;;;20.02;5.25;;;;;;;9.75;69.73;102471.28;5051390;28;20049;-83
2022/05/09 06:19:34;;;;;;;17.23;5.00;;;;;;;9.81;69.80;102470.59;5051665;28;20025;-82
2022/05/09 06:22:00;;;;;;;16.42;4.85;;;;;;;9.92;69.24;102469.44;5053053;28;20035;-82
2022/05/09 06:24:26;;;;;;;9.23;4.72;;;;;;;10.01;68.92;102471.09;5038812;28;20071;-83
2022/05/09 06:26:52;;;;;;;18.20;4.80;;;;;;;10.12;68.56;102464.47;5055125;28;20083;-82
2022/05/09 06:29:18;;;;;;;13.77;5.20;;;;;;;10.23;67.71;102467.81;5055283;28;20074;-82
2022/05/09 06:31:44;;;;;;;17.83;4.95;;;;;;;10.33;67.37;102471.19;5022453;28;20041;-82
2022/05/09 06:34:13;;;;;;;13.87;5.23;;;;;;;10.42;66.76;102463.91;5055884;28;20119;-82
2022/05/09 06:36:39;;;;;;;17.45;5.25;;;;;;;10.51;66.34;102457.41;5056555;28;20025;-82
2022/05/09 06:39:07;;;;;;;13.05;5.22;;;;;;;10.59;65.85;102462.81;5038442;28;20098;-83
2022/05/09 06:41:32;;;;;;;16.80;5.00;;;;;;;10.68;65.54;102463.63;5055694;28;20519;-82
2022/05/09 06:43:58;;;;;;;18.47;5.97;;;;;;;10.74;65.36;102462.94;5038206;28;20062;-82
2022/05/09 06:46:24;;;;;;;13.03;5.40;;;;;;;10.81;65.19;102461.19;5021920;28;20529;-82
2022/05/09 06:48:49;;;;;;;16.17;5.22;;;;;;;10.90;65.20;102456.56;5055848;28;20036;-82
2022/05/09 06:51:15;;;;;;;14.02;5.15;;;;;;;10.97;64.87;102462.97;5054953;28;20044;-82
2022/05/09 06:53:50;;;;;;;13.90;4.83;;;;;;;11.04;64.89;102447.66;5038013;28;20068;-82
2022/05/09 06:56:15;;;;;;;13.35;5.35;;;;;;;11.12;64.92;102454.06;5054541;28;20032;-82
2022/05/09 06:58:41;;;;;;;13.47;5.20;;;;;;;11.18;64.10;102445.19;5038959;28;20376;-82
2022/05/09 07:01:15;;;;;;;19.83;5.33;;;;;;;11.26;64.08;102452.44;5055012;28;20028;-83
2022/05/09 07:03:41;;;;;;;16.88;4.78;;;;;;;11.35;63.83;102451.34;5055059;28;20029;-82
2022/05/09 07:06:06;;;;;;;19.55;5.55;;;;;;;11.41;63.35;102453.34;5038102;28;20056;-82
2022/05/09 07:08:33;;;;;;;15.50;5.30;;;;;;;11.48;64.04;102458.91;5054676;28;20029;-82
2022/05/09 07:10:58;;;;;;;16.55;5.10;;;;;;;11.56;63.34;102450.69;5054723;28;20059;-81
2022/05/09 07:13:24;;;;;;;16.43;5.00;;;;;;;11.65;62.58;102454.16;5038734;28;20044;-82
2022/05/09 07:15:50;;;;;;;23.00;5.45;;;;;;;11.69;62.48;102440.03;5037614;28;20060;-82
2022/05/09 07:18:16;;;;;;;16.23;5.03;;;;;;;11.76;62.64;102451.84;5056387;28;20029;-82
2022/05/09 07:20:41;;;;;;;13.75;4.53;;;;;;;11.87;62.33;102452.44;5037770;28;20036;-82
2022/05/09 07:23:14;;;;;;;15.77;5.23;;;;;;;11.93;62.10;102443.59;5055348;28;20029;-80
2022/05/09 07:25:39;;;;;;;17.65;5.88;;;;;;;12.02;62.08;102453.34;5055981;28;20448;-81
2022/05/09 07:28:05;;;;;;;18.40;6.00;;;;;;;12.11;61.27;102451.38;5037530;28;20088;-81
2022/05/09 07:30:31;;;;;;;18.45;5.07;;;;;;;12.18;61.12;102452.34;5054217;28;20024;-81
2022/05/09 07:32:57;;;;;;;17.33;5.50;;;;;;;12.25;60.76;102449.69;5053647;28;20056;-81
2022/05/09 07:35:24;;;;;;;19.13;5.70;;;;;;;12.37;60.91;102447.34;5053939;28;20127;-81
2022/05/09 07:37:49;;;;;;;20.30;6.05;;;;;;;12.48;60.08;102440.59;5054219;28;20033;-81
2022/05/09 07:40:17;;;;;;;14.20;5.30;;;;;;;12.55;59.91;102445.09;5038182;28;20457;-81
2022/05/09 07:42:44;;;;;;;14.65;4.85;;;;;;;12.61;59.80;102446.22;5054150;28;20083;-81
2022/05/09 07:45:12;;;;;;;16.33;5.80;;;;;;;12.69;60.28;102445.25;5037476;28;20095;-81
2022/05/09 07:47:41;;;;;;;16.25;5.72;;;;;;;12.77;59.51;102447.84;5053695;28;20043;-81
2022/05/09 07:50:09;;;;;;;17.63;5.43;;;;;;;12.84;58.65;102445.22;5054144;28;20381;-80
2022/05/09 07:52:34;;;;;;;14.70;5.25;;;;;;;12.94;58.97;102452.03;5053958;28;20060;-81
2022/05/09 07:54:59;;;;;;;16.33;5.27;;;;;;;13.01;59.02;102452.13;5037336;28;20437;-81
2022/05/09 07:57:26;;;;;;;15.30;5.15;;;;;;;13.14;57.96;102443.25;5037279;28;20033;-81
2022/05/09 07:59:51;;;;;;;13.87;4.67;;;;;;;13.32;58.38;102440.09;5037448;28;20033;-82
2022/05/09 08:02:17;;;;;;;13.98;5.05;;;;;;;13.51;56.49;102446.78;5020616;28;20093;-82
2022/05/09 08:04:42;;;;;;;10.37;4.53;;;;;;;13.62;55.97;102445.41;5053406;28;20033;-82
2022/05/09 08:07:08;;;;;;;15.73;5.07;;;;;;;13.72;56.24;102445.09;5054398;28;20029;-83
2022/05/09 08:09:35;;;;;;;11.20;5.07;;;;;;;13.76;55.25;102449.94;5053763;28;20029;-82
2022/05/09 08:12:07;;;;;;;18.17;4.90;;;;;;;13.87;55.32;102443.09;5054605;28;20045;-83
2022/05/09 08:14:32;;;;;;;16.33;4.85;;;;;;;13.97;54.82;102443.59;5054112;28;20465;-83
2022/05/09 08:16:58;;;;;;;20.97;5.50;;;;;;;14.07;54.93;102437.78;5053238;28;20481;-83
2022/05/09 08:19:23;;;;;;;16.07;4.93;;;;;;;14.12;55.11;102438.00;5054039;28;20041;-84
2022/05/09 08:21:51;;;;;;;17.67;5.13;;;;;;;14.19;55.20;102440.81;5054911;28;20461;-84
2022/05/09 08:24:17;;;;;;;20.00;4.63;;;;;;;14.24;54.35;102432.84;5053408;28;20056;-84
2022/05/09 08:26:43;;;;;;;13.45;5.22;;;;;;;14.33;53.92;102441.72;5053161;28;20041;-82
2022/05/09 08:29:09;;;;;;;11.85;4.53;;;;;;;14.39;53.48;102440.88;5037440;28;20037;-82
2022/05/09 08:31:35;;;;;;;11.27;4.50;;;;;;;14.51;53.95;102439.28;5037034;28;20033;-83
2022/05/09 08:34:00;;;;;;;15.18;4.35;;;;;;;14.62;53.83;102440.63;5054306;28;20057;-83
2022/05/09 08:39:11;;;;;;;11.43;3.80;;;;;;;14.84;52.62;102446.81;5054937;28;20087;-83
2022/05/09 08:41:44;;;;;;;15.70;4.00;;;;;;;14.96;51.98;102438.03;5036360;28;20037;-83
2022/05/09 08:44:23;;;;;;;11.30;3.13;;;;;;;15.08;51.46;102439.91;5054198;28;20029;-84
2022/05/09 08:47:11;;;;;;;8.45;3.30;;;;;;;15.21;50.96;102435.56;5053985;28;20021;-83
2022/05/09 08:49:52;;;;;;;10.20;3.42;;;;;;;15.31;51.04;102430.53;5052550;28;20025;-83
2022/05/09 08:52:31;;;;;;;9.68;3.67;;;;;;;15.42;50.95;102427.13;5053731;28;20033;-83
2022/05/09 08:54:56;;;;;;;10.48;3.95;;;;;;;15.56;50.71;102429.88;5052389;28;20106;-83
2022/05/09 08:57:44;;;;;;;15.47;4.17;;;;;;;15.67;51.27;102431.16;5053167;28;20057;-84
2022/05/09 09:00:14;;;;;;;10.88;4.50;;;;;;;15.83;51.13;102425.28;5054648;28;20044;-83
2022/05/09 09:02:42;;;;;;;13.77;4.30;;;;;;;15.95;50.63;102425.47;5053938;28;20381;-83
2022/05/09 09:05:11;;;;;;;11.98;4.05;;;;;;;16.06;48.84;102423.97;5052486;28;20053;-84
2022/05/09 09:07:53;;;;;;;13.87;4.10;;;;;;;16.17;49.92;102423.31;5052453;28;20483;-83
2022/05/09 09:10:32;;;;;;;11.93;3.60;;;;;;;16.31;49.50;102416.75;5052438;28;20485;-83
2022/05/09 09:13:22;;;;;;;12.27;4.25;;;;;;;16.44;48.37;102409.53;5052540;28;20025;-83
2022/05/09 09:16:20;;;;;;;8.80;4.00;;;;;;;16.56;48.26;102410.53;5036373;28;20060;-83
2022/05/09 09:18:54;;;;;;;15.38;4.40;;;;;;;16.73;48.23;102412.81;5053819;28;20516;-84
2022/05/09 09:21:35;;;;;;;13.10;3.70;;;;;;;16.89;48.66;102406.84;5052807;28;20029;-82
2022/05/09 09:24:37;;;;;;;14.60;4.45;;;;;;;17.10;48.47;102399.31;5052619;28;20036;-82
2022/05/09 09:27:10;;;;;;;15.23;4.78;;;;;;;17.27;45.70;102408.69;5052282;28;20044;-82
2022/05/09 09:29:47;;;;;;;10.18;3.63;;;;;;;17.39;45.46;102402.47;5054011;28;20060;-82
2022/05/09 09:32:20;;;;;;;9.68;3.55;;;;;;;17.52;44.81;102399.63;5053119;28;20040;-82
2022/05/09 09:34:57;;;;;;;9.60;3.40;;;;;;;17.66;43.86;102403.94;5053413;28;20033;-82
2022/05/09 09:37:31;;;;;;;8.13;3.00;;;;;;;17.80;43.36;102398.31;5053712;28;20039;-82
2022/05/09 09:40:00;;;;;;;10.55;3.17;;;;;;;17.95;43.09;102398.84;5052230;28;20033;-82
2022/05/09 09:42:26;;;;;;;7.72;3.60;;;;;;;18.15;44.25;102397.78;5053435;28;20032;-82
2022/05/09 09:44:54;;;;;;;9.60;3.00;;;;;;;18.32;41.78;102396.09;5035481;28;20026;-82
2022/05/09 09:47:19;;;;;;;11.85;3.30;;;;;;;18.47;41.21;102386.59;5036804;28;20029;-82
2022/05/09 09:49:48;;;;;;;11.83;3.47;;;;;;;18.61;41.32;102395.53;5052222;28;20074;-82
2022/05/09 09:52:28;;;;;;;8.40;3.10;;;;;;;18.78;41.21;102388.31;5052129;28;20060;-82
2022/05/09 09:54:53;;;;;;;7.88;2.90;;;;;;;18.86;39.36;102387.16;5054298;28;20028;-82
2022/05/09 09:57:23;;;;;;;7.57;2.90;;;;;;;18.91;38.88;102379.91;5053850;28;20501;-82
2022/05/09 09:59:49;;;;;;;8.23;2.92;;;;;;;19.03;38.49;102388.19;5056979;28;20036;-82
2022/05/09 10:02:30;;;;;;;10.83;3.20;;;;;;;19.15;39.95;102385.47;5057635;28;20025;-82
2022/05/09 10:04:57;;;;;;;8.63;2.63;;;;;;;19.21;38.51;102370.75;5057299;28;20485;-82
2022/05/09 10:07:34;;;;;;;9.88;3.22;;;;;;;19.30;39.08;102360.25;5056747;28;20108;-82
2022/05/09 10:10:32;;;;;;;5.75;2.67;;;;;;;19.37;38.63;102363.72;5057380;28;20040;-82
2022/05/09 10:12:59;;;;;;;9.02;3.20;;;;;;;19.37;36.86;102360.97;5012290;28;20473;-82
2022/05/09 10:15:27;;;;;;;10.73;3.00;;;;;;;19.25;36.85;102363.72;5056858;28;20110;-82
2022/05/09 10:17:53;;;;;;;6.43;2.47;;;;;;;19.42;37.61;102358.31;5055781;28;20040;-82
2022/05/09 10:20:39;;;;;;;6.32;2.67;;;;;;;19.74;37.49;102357.16;5055825;28;20033;-82
2022/05/09 10:26:16;;;;;;;10.82;3.30;;;;;;;20.15;36.88;102356.16;5057365;28;20459;-82
2022/05/09 10:28:49;;;;;;;8.30;3.10;;;;;;;20.39;36.68;102353.31;5055324;28;20029;-82
2022/05/09 10:31:23;;;;;;;9.02;3.15;;;;;;;20.67;36.45;102348.94;5056353;28;20048;-81
2022/05/09 10:33:55;;;;;;;10.30;3.72;;;;;;;20.93;35.74;102343.88;5057080;28;20116;-82
2022/05/09 10:36:39;;;;;;;8.13;3.08;;;;;;;21.02;36.35;102342.38;5056766;28;20476;-82
2022/05/09 10:39:10;;;;;;;11.75;3.60;;;;;;;21.14;34.77;102337.63;5055466;28;20500;-82
2022/05/09 10:41:48;;;;;;;7.93;3.30;;;;;;;21.42;35.41;102337.75;5056236;28;20036;-82
2022/05/09 10:44:36;;;;;;;8.85;3.00;;;;;;;21.75;35.40;102336.91;5056816;28;20024;-82
2022/05/09 10:47:28;;;;;;;7.30;2.90;;;;;;;22.01;35.04;102328.94;5055294;28;20116;-82
2022/05/09 10:50:22;;;;;;;7.72;3.10;;;;;;;22.42;33.83;102329.47;5057012;28;20055;-82
2022/05/09 10:53:05;;;;;;;8.10;3.28;;;;;;;22.63;34.02;102327.75;5048275;28;20036;-81
2022/05/09 10:56:12;;;;;;;7.07;2.97;;;;;;;22.80;33.91;102327.66;5055453;28;20036;-82
2022/05/09 10:58:47;;;;;;;8.27;3.05;;;;;;;22.72;32.54;102319.81;5055735;28;20025;-82
2022/05/09 11:01:22;;;;;;;8.43;3.30;;;;;;;22.91;32.41;102323.88;5055308;28;20055;-82
2022/05/09 11:03:48;;;;;;;10.93;3.80;;;;;;;23.11;32.19;102314.09;5056334;28;20033;-82
2022/05/09 11:06:28;;;;;;;11.37;3.27;;;;;;;23.58;32.76;102307.78;5038298;28;20487;-82
2022/05/09 11:08:59;;;;;;;10.07;4.22;;;;;;;23.91;31.35;102314.06;5054554;28;20465;-82
2022/05/09 11:11:40;;;;;;;9.57;3.40;;;;;;;24.12;31.01;102305.81;5056063;28;20029;-82
2022/05/09 11:14:20;;;;;;;7.18;3.25;;;;;;;25.24;30.01;102304.31;5054728;28;20033;-81
2022/05/09 11:16:55;;;;;;;12.50;3.87;;;;;;;27.92;27.73;102303.38;5054796;28;20049;-82
2022/05/09 11:19:41;;;;;;;7.20;3.38;;;;;;;30.71;24.64;102301.91;5055638;28;20032;-82
2022/05/09 11:22:20;;;;;;;13.70;3.58;;;;;;;33.71;21.27;102284.78;5054736;28;20119;-82
2022/05/09 11:24:45;;;;;;;8.98;3.70;;;;;;;36.06;17.32;102281.88;5054256;28;20040;-82
2022/05/09 11:27:53;;;;;;;13.17;3.70;;;;;;;38.34;18.69;102284.53;5055786;28;20024;-82
2022/05/09 11:30:18;;;;;;;6.35;3.35;;;;;;;39.79;14.42;102266.03;5050551;28;20478;-82
2022/05/09 11:32:46;;;;;;;7.50;3.80;;;;;;;40.94;13.11;102268.63;5054389;28;20131;-82
2022/05/09 11:35:23;;;;;;;12.68;4.03;;;;;;;42.25;14.27;102263.41;5038244;28;20040;-82
2022/05/09 11:38:26;;;;;;;14.27;4.30;;;;;;;43.62;13.75;102260.66;5054230;28;20033;-83
2022/05/09 11:41:06;;;;;;;11.00;5.00;;;;;;;44.33;12.00;102251.00;5054228;28;20119;-83
2022/05/09 11:43:56;;;;;;;7.95;4.55;;;;;;;43.91;11.89;102244.28;5055182;28;20029;-83
2022/05/09 11:46:28;;;;;;;10.65;5.18;;;;;;;45.08;11.30;102231.69;5054640;28;20531;-83